Time;durP1;ratioP1;P1;durP2;ratioP2;P2;SDS_P1;SDS_P2;PMS_P1;PMS_P2;Temp;Humidity;BMP_temperature;BMP_pressure;BME280_temperature;BME280_humidity;BME280_pressure;Samples;Min_cycle;Max_cycle;Signal;HPM_P1;HPM_P2
2021/09/28 00:02:08;;;;;;;12.70;2.20;;;;;;;11.72;100.00;100767.03;5070013;28;20041;-72
2021/09/28 00:04:37;;;;;;;12.77;2.40;;;;;;;11.74;100.00;100765.16;5054501;28;20405;-71
2021/09/28 00:07:14;;;;;;;13.13;2.22;;;;;;;11.71;100.00;100765.31;5054566;28;20706;-71
2021/09/28 00:09:41;;;;;;;20.30;2.95;;;;;;;11.70;100.00;100758.22;5053199;28;20049;-71
2021/09/28 00:12:08;;;;;;;16.10;2.50;;;;;;;11.72;100.00;100766.19;5054598;28;20095;-72
2021/09/28 00:14:36;;;;;;;12.02;2.38;;;;;;;11.65;100.00;100760.28;5054498;28;20057;-72
2021/09/28 00:17:03;;;;;;;12.63;2.30;;;;;;;11.72;100.00;100772.38;5053394;28;20045;-71
2021/09/28 00:19:30;;;;;;;13.75;2.53;;;;;;;11.74;100.00;100770.50;5054362;28;20053;-71
2021/09/28 00:22:00;;;;;;;14.90;1.98;;;;;;;11.60;100.00;100754.38;5053174;28;20086;-71
2021/09/28 00:24:28;;;;;;;12.03;2.23;;;;;;;11.63;100.00;100759.53;5054401;28;20048;-71
2021/09/28 00:26:56;;;;;;;11.05;2.40;;;;;;;11.62;100.00;100772.06;5054418;28;20126;-72
2021/09/28 00:29:23;;;;;;;11.55;1.80;;;;;;;11.65;100.00;100771.00;5054365;28;20048;-73
2021/09/28 00:31:50;;;;;;;12.23;2.05;;;;;;;11.57;100.00;100768.75;5054515;28;20097;-72
2021/09/28 00:34:17;;;;;;;10.35;1.98;;;;;;;11.52;100.00;100755.66;5049948;28;20398;-73
2021/09/28 00:36:44;;;;;;;13.27;1.85;;;;;;;11.60;100.00;100767.72;5049674;28;20099;-72
2021/09/28 00:39:10;;;;;;;15.00;2.10;;;;;;;11.61;100.00;100769.47;5034413;28;20160;-73
2021/09/28 00:41:37;;;;;;;10.85;1.92;;;;;;;11.58;100.00;100769.59;5034352;28;20042;-72
2021/09/28 00:44:04;;;;;;;8.65;2.45;;;;;;;11.57;100.00;100762.53;5034189;28;20057;-72
2021/09/28 00:46:31;;;;;;;17.13;2.33;;;;;;;11.60;100.00;100773.06;5033213;28;20052;-72
2021/09/28 00:48:58;;;;;;;11.88;2.08;;;;;;;11.62;100.00;100765.81;5034164;28;20148;-73
2021/09/28 00:51:26;;;;;;;7.78;2.10;;;;;;;11.55;100.00;100770.63;5049601;28;20041;-72
2021/09/28 00:53:55;;;;;;;15.50;1.67;;;;;;;11.54;100.00;100774.25;5034244;28;20108;-72
2021/09/28 00:56:22;;;;;;;11.13;2.25;;;;;;;11.50;100.00;100776.25;5034488;28;20072;-71
2021/09/28 00:58:51;;;;;;;9.77;2.05;;;;;;;11.53;100.00;100778.75;5037751;28;20052;-72
2021/09/28 01:01:19;;;;;;;12.65;2.10;;;;;;;11.48;100.00;100780.81;5047946;28;20051;-71
2021/09/28 01:03:46;;;;;;;8.65;1.83;;;;;;;11.49;100.00;100777.19;5057546;28;20459;-72
2021/09/28 01:06:13;;;;;;;13.80;2.22;;;;;;;11.49;100.00;100777.19;5057778;28;20122;-71
2021/09/28 01:08:40;;;;;;;10.50;1.70;;;;;;;11.43;100.00;100766.00;5057741;28;20044;-70
2021/09/28 01:11:07;;;;;;;11.60;1.50;;;;;;;11.45;100.00;100775.66;5057755;28;20115;-74
2021/09/28 01:13:33;;;;;;;8.05;1.63;;;;;;;11.45;100.00;100780.13;5057577;28;20457;-70
2021/09/28 01:16:00;;;;;;;11.18;1.77;;;;;;;11.44;100.00;100784.59;5056421;28;20063;-72
2021/09/28 01:18:32;;;;;;;17.13;2.20;;;;;;;11.40;100.00;100777.72;5056295;28;20071;-71
2021/09/28 01:21:00;;;;;;;10.38;2.35;;;;;;;11.38;100.00;100785.81;5057389;28;20037;-71
2021/09/28 01:23:27;;;;;;;10.90;1.55;;;;;;;11.40;100.00;100785.72;5057220;28;20533;-72
2021/09/28 01:25:54;;;;;;;11.45;1.73;;;;;;;11.38;100.00;100777.78;5057475;28;20111;-72
2021/09/28 01:28:22;;;;;;;14.40;1.70;;;;;;;11.41;100.00;100790.13;5039919;28;20048;-73
2021/09/28 01:30:49;;;;;;;11.02;1.92;;;;;;;11.38;100.00;100784.94;5056046;28;20037;-72
2021/09/28 01:33:17;;;;;;;7.88;1.55;;;;;;;11.32;100.00;100774.59;5057252;28;20063;-71
2021/09/28 01:35:44;;;;;;;12.23;1.67;;;;;;;11.27;100.00;100786.38;5040709;28;20343;-71
2021/09/28 01:38:10;;;;;;;11.27;1.63;;;;;;;11.27;100.00;100781.03;5037038;28;20050;-73
2021/09/28 01:40:38;;;;;;;7.85;1.52;;;;;;;11.16;100.00;100770.06;5037056;28;20107;-71
2021/09/28 01:43:09;;;;;;;12.65;1.63;;;;;;;11.18;100.00;100786.03;5036666;28;20065;-73
2021/09/28 01:45:41;;;;;;;10.10;1.48;;;;;;;11.13;100.00;100775.59;5036782;28;20049;-73
2021/09/28 01:48:09;;;;;;;10.48;1.77;;;;;;;11.18;100.00;100794.03;5036738;28;20497;-71
2021/09/28 01:50:36;;;;;;;8.88;1.83;;;;;;;11.17;100.00;100784.31;5036747;28;20044;-71
2021/09/28 01:53:04;;;;;;;8.82;1.52;;;;;;;11.17;100.00;100787.81;5036870;28;20053;-71
2021/09/28 01:55:31;;;;;;;10.07;1.92;;;;;;;11.15;100.00;100789.72;5036849;28;20045;-73
2021/09/28 01:57:59;;;;;;;12.57;1.85;;;;;;;11.14;100.00;100791.53;5036685;28;20068;-72
2021/09/28 02:00:27;;;;;;;14.65;2.05;;;;;;;11.13;100.00;100789.78;5039686;28;20127;-72
2021/09/28 02:02:54;;;;;;;8.82;1.50;;;;;;;11.18;100.00;100794.03;5056586;28;20420;-71
2021/09/28 02:05:21;;;;;;;15.43;2.00;;;;;;;11.20;100.00;100797.47;5038841;28;20091;-72
2021/09/28 02:07:48;;;;;;;12.00;1.75;;;;;;;11.19;100.00;100801.97;5056281;28;20049;-72
2021/09/28 02:10:15;;;;;;;10.88;1.38;;;;;;;11.19;100.00;100798.44;5054729;28;20055;-72
2021/09/28 02:12:42;;;;;;;9.40;1.48;;;;;;;11.26;100.00;100797.16;5056302;28;20043;-72
2021/09/28 02:15:10;;;;;;;7.60;1.38;;;;;;;11.32;100.00;100801.31;5055154;28;20084;-72
2021/09/28 02:17:39;;;;;;;11.68;1.67;;;;;;;11.23;100.00;100792.00;5056365;28;20079;-72
2021/09/28 02:20:07;;;;;;;11.80;1.92;;;;;;;11.26;100.00;100806.03;5056060;28;20495;-71
2021/09/28 02:22:33;;;;;;;11.77;1.45;;;;;;;11.25;100.00;100800.78;5056173;28;20045;-72
2021/09/28 02:25:00;;;;;;;10.10;1.70;;;;;;;11.22;100.00;100792.94;5055067;28;20056;-71
2021/09/28 02:27:28;;;;;;;11.77;1.58;;;;;;;11.18;100.00;100805.59;5056571;28;20372;-70
2021/09/28 02:29:56;;;;;;;13.93;1.70;;;;;;;11.18;100.00;100802.94;5055964;28;20388;-72
2021/09/28 02:32:23;;;;;;;14.27;1.67;;;;;;;11.12;100.00;100796.09;5056098;28;20296;-70
2021/09/28 02:34:49;;;;;;;10.32;1.60;;;;;;;11.16;100.00;100802.13;5046880;28;20712;-72
2021/09/28 02:37:17;;;;;;;8.18;1.83;;;;;;;11.09;100.00;100785.56;5036064;28;20103;-72
2021/09/28 02:39:44;;;;;;;15.85;1.75;;;;;;;11.10;100.00;100791.75;5034953;28;20046;-71
2021/09/28 02:42:12;;;;;;;10.00;1.67;;;;;;;11.11;100.00;100798.84;5034790;28;20101;-73
2021/09/28 02:44:39;;;;;;;8.05;1.52;;;;;;;11.08;100.00;100794.53;5018379;28;20057;-73
2021/09/28 02:47:06;;;;;;;15.80;1.83;;;;;;;11.06;100.00;100800.91;5035720;28;20422;-72
2021/09/28 02:49:34;;;;;;;12.73;1.52;;;;;;;11.11;100.00;100793.50;5034529;28;20166;-73
2021/09/28 02:52:01;;;;;;;12.52;1.80;;;;;;;11.16;100.00;100799.44;5018208;28;20132;-72
2021/09/28 02:54:28;;;;;;;9.35;1.63;;;;;;;11.11;100.00;100786.34;5034456;28;20045;-73
2021/09/28 02:56:55;;;;;;;12.95;1.88;;;;;;;11.10;100.00;100791.75;5018196;28;20057;-71
2021/09/28 02:59:22;;;;;;;15.55;1.73;;;;;;;11.17;100.00;100795.81;5035560;28;20046;-73
2021/09/28 03:01:48;;;;;;;11.10;1.58;;;;;;;11.13;100.00;100797.81;5049639;28;20575;-72
2021/09/28 03:04:15;;;;;;;6.65;1.38;;;;;;;11.04;100.00;100800.09;5054401;28;20045;-73
2021/09/28 03:06:42;;;;;;;6.00;1.70;;;;;;;11.08;100.00;100799.88;5055227;28;20048;-71
2021/09/28 03:09:09;;;;;;;9.63;1.70;;;;;;;11.07;100.00;100797.28;5055420;28;20041;-72
2021/09/28 03:11:37;;;;;;;7.05;1.10;;;;;;;11.04;100.00;100792.09;5054101;28;20049;-73
2021/09/28 03:14:04;;;;;;;10.18;1.48;;;;;;;11.05;100.00;100804.53;5055309;28;20061;-73
2021/09/28 03:16:31;;;;;;;8.23;1.48;;;;;;;11.01;100.00;100806.50;5054937;28;20392;-71
2021/09/28 03:18:58;;;;;;;11.02;1.50;;;;;;;10.93;100.00;100806.88;5054831;28;20045;-73
2021/09/28 03:21:25;;;;;;;11.73;1.77;;;;;;;10.89;100.00;100809.81;5070333;28;20437;-71
2021/09/28 03:23:51;;;;;;;9.82;1.70;;;;;;;10.85;100.00;100814.44;5055205;28;20049;-73
2021/09/28 03:26:18;;;;;;;10.13;1.75;;;;;;;10.82;100.00;100803.91;5055011;28;20102;-74
2021/09/28 03:28:45;;;;;;;10.43;1.40;;;;;;;10.82;100.00;100806.56;5053950;28;20041;-72
2021/09/28 03:31:12;;;;;;;14.80;1.70;;;;;;;10.79;100.00;100809.41;5055039;28;20095;-72
2021/09/28 03:33:39;;;;;;;6.35;1.75;;;;;;;10.76;100.00;100797.06;5070535;28;20041;-72
2021/09/28 03:36:05;;;;;;;6.43;1.20;;;;;;;10.84;100.00;100808.22;5054759;28;20365;-72
2021/09/28 03:38:32;;;;;;;7.65;1.65;;;;;;;10.82;100.00;100809.25;5054816;28;20049;-72
2021/09/28 03:40:59;;;;;;;11.40;2.85;;;;;;;10.82;100.00;100818.13;5055094;28;20045;-71
2021/09/28 03:43:26;;;;;;;14.13;2.20;;;;;;;10.80;100.00;100816.47;5053592;28;20061;-70
2021/09/28 03:45:56;;;;;;;6.32;1.38;;;;;;;10.80;100.00;100812.00;5054494;28;20052;-72
2021/09/28 03:48:23;;;;;;;5.57;0.97;;;;;;;10.81;100.00;100807.50;5054968;28;20036;-72
2021/09/28 03:50:50;;;;;;;7.53;1.52;;;;;;;10.78;100.00;100811.19;5037252;28;20131;-71
2021/09/28 03:53:18;;;;;;;6.40;1.27;;;;;;;10.77;100.00;100814.81;5053673;28;20048;-73
2021/09/28 03:55:44;;;;;;;12.88;2.03;;;;;;;10.80;100.00;100819.16;5054558;28;20060;-71
2021/09/28 03:58:12;;;;;;;12.18;1.73;;;;;;;10.74;100.00;100820.34;5054644;28;20079;-72
2021/09/28 04:00:39;;;;;;;12.32;1.45;;;;;;;10.69;100.00;100815.19;5054182;28;20091;-72
2021/09/28 04:03:07;;;;;;;9.88;1.15;;;;;;;10.68;100.00;100815.31;5054598;28;20037;-75
2021/09/28 04:05:36;;;;;;;12.07;1.70;;;;;;;10.69;100.00;100817.88;5053504;28;20049;-72
2021/09/28 04:08:04;;;;;;;6.90;1.98;;;;;;;10.70;100.00;100822.28;5054531;28;20052;-70
2021/09/28 04:10:35;;;;;;;10.18;2.42;;;;;;;10.68;100.00;100824.16;5054567;28;20163;-70
2021/09/28 04:13:10;;;;;;;5.90;2.00;;;;;;;10.69;100.00;100820.53;5045370;28;20056;-72
2021/09/28 04:15:41;;;;;;;5.10;1.77;;;;;;;10.66;100.00;100815.38;5037200;28;20117;-71
2021/09/28 04:18:12;;;;;;;8.02;1.67;;;;;;;10.61;100.00;100817.41;5034327;28;20042;-72
2021/09/28 04:20:43;;;;;;;8.98;1.65;;;;;;;10.64;100.00;100819.94;5049905;28;20354;-71
2021/09/28 04:23:12;;;;;;;12.63;1.55;;;;;;;10.58;100.00;100821.09;5053136;28;20037;-73
2021/09/28 04:25:40;;;;;;;9.65;3.10;;;;;;;10.56;100.00;100822.09;5046023;28;20041;-71
2021/09/28 04:28:10;;;;;;;7.60;1.33;;;;;;;10.57;100.00;100822.03;5047749;28;20107;-73
2021/09/28 04:30:37;;;;;;;12.02;1.55;;;;;;;10.63;100.00;100826.22;5046545;28;20045;-73
2021/09/28 04:33:05;;;;;;;8.35;1.40;;;;;;;10.60;100.00;100826.34;5056987;28;20033;-73
2021/09/28 04:35:32;;;;;;;9.05;1.20;;;;;;;10.54;100.00;100822.22;5049871;28;20435;-73
2021/09/28 04:37:59;;;;;;;9.23;1.83;;;;;;;10.54;100.00;100830.22;5056351;28;20053;-74
2021/09/28 04:40:26;;;;;;;8.27;1.58;;;;;;;10.51;100.00;100833.03;5047087;28;20052;-75
2021/09/28 04:42:53;;;;;;;8.50;1.67;;;;;;;10.52;100.00;100831.22;5054695;28;20124;-76
2021/09/28 04:45:20;;;;;;;10.95;2.33;;;;;;;10.51;100.00;100826.84;5054280;28;20103;-77
2021/09/28 04:47:47;;;;;;;11.30;1.30;;;;;;;10.49;100.00;100834.03;5046077;28;20041;-75
2021/09/28 04:50:14;;;;;;;7.45;1.40;;;;;;;10.37;100.00;100831.03;5056307;28;20049;-71
2021/09/28 04:52:41;;;;;;;10.45;1.67;;;;;;;10.45;100.00;100834.19;5054269;28;20101;-73
2021/09/28 04:55:08;;;;;;;5.70;1.05;;;;;;;10.41;100.00;100831.72;5054257;28;20041;-71
2021/09/28 04:57:35;;;;;;;9.18;1.55;;;;;;;10.40;100.00;100833.53;5049455;28;20077;-72
2021/09/28 05:00:03;;;;;;;6.68;1.52;;;;;;;10.39;100.00;100837.13;5048467;28;20080;-70
2021/09/28 05:02:30;;;;;;;6.25;1.25;;;;;;;10.38;100.00;100834.53;5040520;28;20045;-74
2021/09/28 05:04:57;;;;;;;12.50;1.77;;;;;;;10.41;100.00;100837.91;5027121;28;20144;-71
2021/09/28 05:07:24;;;;;;;6.95;1.45;;;;;;;10.36;100.00;100829.31;5034332;28;20037;-74
2021/09/28 05:09:51;;;;;;;8.60;1.88;;;;;;;10.33;100.00;100840.09;5051721;28;20142;-72
2021/09/28 05:12:18;;;;;;;4.45;1.40;;;;;;;10.27;100.00;100835.94;5054316;28;20052;-75
2021/09/28 05:14:44;;;;;;;10.75;1.60;;;;;;;10.30;100.00;100838.44;5037541;28;20052;-74
2021/09/28 05:17:11;;;;;;;7.85;1.65;;;;;;;10.38;100.00;100840.75;5054311;28;20037;-74
2021/09/28 05:19:38;;;;;;;5.13;2.65;;;;;;;10.36;100.00;100839.09;5046963;28;20049;-73
2021/09/28 05:22:05;;;;;;;7.72;1.65;;;;;;;10.33;100.00;100845.44;5049148;28;20045;-76
2021/09/28 05:24:32;;;;;;;5.75;1.67;;;;;;;10.33;100.00;100837.44;5053656;28;20389;-75
2021/09/28 05:26:59;;;;;;;10.52;1.85;;;;;;;10.34;100.00;100844.50;5056754;28;20041;-74
2021/09/28 05:29:26;;;;;;;4.90;1.25;;;;;;;10.28;100.00;100852.81;5072146;28;20354;-74
2021/09/28 05:31:52;;;;;;;14.10;1.70;;;;;;;10.28;100.00;100851.00;5055192;28;20044;-73
2021/09/28 05:34:21;;;;;;;8.05;1.40;;;;;;;10.32;100.00;100843.72;5056552;28;20041;-71
2021/09/28 05:36:48;;;;;;;7.47;1.30;;;;;;;10.32;100.00;100847.25;5056854;28;20329;-75
2021/09/28 05:39:15;;;;;;;8.55;1.50;;;;;;;10.28;100.00;100853.69;5055251;28;20039;-74
2021/09/28 05:41:42;;;;;;;10.93;1.30;;;;;;;10.24;100.00;100852.09;5041911;28;20045;-73
2021/09/28 05:44:09;;;;;;;8.27;1.40;;;;;;;10.24;100.00;100851.25;5043692;28;20401;-73
2021/09/28 05:46:37;;;;;;;11.25;1.80;;;;;;;10.15;100.00;100853.38;5038434;28;20379;-75
2021/09/28 05:49:04;;;;;;;7.28;1.25;;;;;;;10.15;100.00;100853.38;5042893;28;20061;-74
2021/09/28 05:51:33;;;;;;;9.65;1.85;;;;;;;10.14;100.00;100851.66;5038070;28;20046;-74
2021/09/28 05:54:01;;;;;;;7.65;1.52;;;;;;;10.10;100.00;100850.09;5059544;28;20099;-72
2021/09/28 05:56:28;;;;;;;7.95;1.55;;;;;;;10.17;100.00;100850.66;5047319;28;20064;-72
2021/09/28 05:58:55;;;;;;;7.60;2.20;;;;;;;10.15;100.00;100848.06;5055128;28;20069;-72
2021/09/28 06:01:22;;;;;;;5.53;1.75;;;;;;;10.15;100.00;100848.06;5056049;28;20037;-71
2021/09/28 06:03:49;;;;;;;9.82;1.25;;;;;;;10.23;100.00;100860.19;5055900;28;20453;-73
2021/09/28 06:06:16;;;;;;;5.47;1.50;;;;;;;10.24;100.00;100853.91;5056212;28;20047;-73
2021/09/28 06:08:43;;;;;;;11.23;1.70;;;;;;;10.24;100.00;100854.75;5053994;28;20338;-73
2021/09/28 06:11:09;;;;;;;7.45;1.38;;;;;;;10.27;100.00;100856.41;5055353;28;20080;-71
2021/09/28 06:13:36;;;;;;;5.82;1.40;;;;;;;10.33;100.00;100858.78;5055966;28;20339;-72
2021/09/28 06:16:03;;;;;;;8.05;1.48;;;;;;;10.39;100.00;100863.81;5055827;28;20079;-71
2021/09/28 06:18:31;;;;;;;4.57;1.50;;;;;;;10.45;100.00;100860.00;5055193;28;20063;-73
2021/09/28 06:20:57;;;;;;;9.43;1.90;;;;;;;10.49;100.00;100860.72;5035233;28;20103;-73
2021/09/28 06:23:24;;;;;;;10.55;1.88;;;;;;;10.55;100.00;100855.09;5036168;28;20042;-72
2021/09/28 06:25:51;;;;;;;15.35;3.95;;;;;;;10.58;100.00;100855.78;5035137;28;20061;-71
2021/09/28 06:28:18;;;;;;;13.15;1.75;;;;;;;10.67;100.00;100859.81;5036208;28;20128;-72
2021/09/28 06:30:46;;;;;;;8.88;1.40;;;;;;;10.68;99.37;100856.19;5034048;28;20478;-74
2021/09/28 06:33:13;;;;;;;9.40;1.50;;;;;;;10.77;99.24;100862.00;5036899;28;20053;-73
2021/09/28 06:35:40;;;;;;;9.43;1.60;;;;;;;10.73;100.00;100856.84;5041551;28;20047;-73
2021/09/28 06:38:08;;;;;;;15.52;2.67;;;;;;;10.81;99.39;100861.78;5055434;28;20055;-73
2021/09/28 06:40:35;;;;;;;12.60;1.58;;;;;;;10.81;99.44;100863.59;5042375;28;20050;-72
2021/09/28 06:43:02;;;;;;;7.97;1.33;;;;;;;10.81;99.51;100853.78;5035691;28;20049;-73
2021/09/28 06:45:29;;;;;;;5.63;1.35;;;;;;;10.89;99.35;100860.53;5036273;28;20378;-72
2021/09/28 06:47:57;;;;;;;7.35;1.42;;;;;;;10.94;99.68;100870.03;5039263;28;20143;-71
2021/09/28 06:50:24;;;;;;;9.73;1.48;;;;;;;10.96;99.35;100860.13;5054499;28;20045;-72
2021/09/28 06:52:52;;;;;;;6.53;1.25;;;;;;;11.01;99.55;100857.25;5051022;28;20041;-70
2021/09/28 06:55:19;;;;;;;13.02;1.42;;;;;;;11.06;100.00;100865.00;5035510;28;20330;-71
2021/09/28 06:57:46;;;;;;;13.20;2.00;;;;;;;11.12;99.15;100851.34;5034205;28;20057;-73
2021/09/28 07:00:13;;;;;;;7.15;1.30;;;;;;;11.16;99.11;100854.72;5049050;28;20045;-71
2021/09/28 07:02:40;;;;;;;9.23;1.60;;;;;;;11.26;97.89;100856.81;5033169;28;20048;-71
2021/09/28 07:05:11;;;;;;;12.48;1.60;;;;;;;11.29;97.61;100861.13;5016832;28;20084;-73
2021/09/28 07:07:39;;;;;;;10.23;1.33;;;;;;;11.28;98.78;100862.09;5034874;28;20064;-72
2021/09/28 07:10:07;;;;;;;8.45;1.63;;;;;;;11.35;98.26;100859.94;5035087;28;20046;-72
2021/09/28 07:12:35;;;;;;;7.15;1.88;;;;;;;11.34;97.99;100864.41;5050674;28;20049;-71
2021/09/28 07:15:05;;;;;;;7.82;1.20;;;;;;;11.40;97.98;100869.44;5035308;28;20045;-70
2021/09/28 07:17:32;;;;;;;5.68;1.52;;;;;;;11.45;97.57;100866.53;5035216;28;20046;-73
2021/09/28 07:20:01;;;;;;;7.50;1.45;;;;;;;11.51;96.93;100866.19;5050522;28;20049;-73
2021/09/28 07:22:28;;;;;;;7.05;1.35;;;;;;;11.60;97.77;100866.66;5033995;28;20049;-71
2021/09/28 07:24:55;;;;;;;6.28;1.25;;;;;;;11.54;97.76;100855.34;5033944;28;20132;-72
2021/09/28 07:27:28;;;;;;;7.28;1.40;;;;;;;11.65;97.57;100868.13;5035059;28;20055;-70
2021/09/28 07:29:55;;;;;;;14.13;1.77;;;;;;;11.63;97.83;100867.34;5034953;28;20064;-72
2021/09/28 07:32:23;;;;;;;8.90;1.70;;;;;;;11.63;98.24;100864.69;5033959;28;20136;-72
2021/09/28 07:34:50;;;;;;;10.60;1.45;;;;;;;11.61;97.51;100871.91;5059123;28;20076;-70
2021/09/28 07:37:17;;;;;;;5.53;1.70;;;;;;;11.71;97.61;100863.41;5020991;28;20045;-73
2021/09/28 07:39:50;;;;;;;12.48;1.75;;;;;;;11.77;97.84;100871.94;5054853;28;20399;-72
2021/09/28 07:42:17;;;;;;;6.78;1.60;;;;;;;11.84;97.26;100875.16;5053703;28;20048;-70
2021/09/28 07:44:44;;;;;;;11.43;1.80;;;;;;;11.87;96.54;100866.94;5054823;28;20099;-72
2021/09/28 07:47:11;;;;;;;8.20;1.50;;;;;;;11.93;96.52;100871.97;5054978;28;20056;-73
2021/09/28 07:49:38;;;;;;;10.20;1.67;;;;;;;12.01;96.99;100887.59;5054665;28;20077;-72
2021/09/28 07:52:05;;;;;;;6.25;1.42;;;;;;;12.05;97.01;100882.97;5045105;28;20033;-72
2021/09/28 07:54:34;;;;;;;7.88;1.52;;;;;;;12.05;96.61;100886.50;5035121;28;20320;-69
2021/09/28 07:57:05;;;;;;;5.90;1.50;;;;;;;12.15;96.00;100896.69;5034710;28;20114;-72
2021/09/28 07:59:32;;;;;;;9.63;2.00;;;;;;;12.25;95.49;100886.34;5034815;28;20057;-72
2021/09/28 08:01:59;;;;;;;8.90;1.80;;;;;;;12.30;95.30;100885.13;5034601;28;20046;-69
2021/09/28 08:04:26;;;;;;;9.27;1.50;;;;;;;12.34;94.41;100885.81;5034604;28;20046;-72
2021/09/28 08:06:54;;;;;;;7.43;1.20;;;;;;;12.42;94.79;100898.75;5035804;28;20076;-72
2021/09/28 08:09:21;;;;;;;7.72;1.38;;;;;;;12.41;94.93;100895.22;5038800;28;20048;-72
2021/09/28 08:11:48;;;;;;;14.07;2.60;;;;;;;12.45;95.16;100894.09;5037778;28;20406;-73
2021/09/28 08:14:15;;;;;;;9.65;1.80;;;;;;;12.52;94.75;100894.59;5037666;28;20048;-71
2021/09/28 08:16:42;;;;;;;10.60;2.55;;;;;;;12.60;94.37;100895.00;5037374;28;20060;-71
2021/09/28 08:19:09;;;;;;;6.28;1.63;;;;;;;12.69;93.42;100890.94;5038542;28;20037;-73
2021/09/28 08:21:36;;;;;;;6.22;1.52;;;;;;;12.79;93.08;100887.75;5038556;28;20041;-73
2021/09/28 08:24:03;;;;;;;15.25;1.50;;;;;;;12.83;93.84;100887.47;5038359;28;20514;-72
2021/09/28 08:29:10;;;;;;;8.40;1.60;;;;;;;13.06;91.24;100873.66;5038745;28;20050;-74
2021/09/28 08:31:41;;;;;;;10.52;1.55;;;;;;;13.21;90.51;100882.56;5038423;28;20045;-73
2021/09/28 08:34:08;;;;;;;;;;;;;;;13.28;89.79;100884.78;5040900;28;20351;-71
2021/09/28 08:36:35;;;;;;;13.48;1.95;;;;;;;13.33;89.69;100868.41;5056962;28;19928;-73
2021/09/28 08:39:04;;;;;;;9.65;2.35;;;;;;;13.38;88.30;100877.06;5058400;28;20069;-72
2021/09/28 08:41:31;;;;;;;16.55;1.77;;;;;;;13.50;89.59;100879.97;5058083;28;20385;-73
2021/09/28 08:43:58;;;;;;;6.30;1.23;;;;;;;13.56;88.60;100880.44;5056927;28;20463;-72
2021/09/28 08:46:25;;;;;;;14.98;1.88;;;;;;;13.62;88.47;100868.47;5058176;28;20045;-74
2021/09/28 08:48:52;;;;;;;7.63;1.45;;;;;;;13.68;88.42;100872.59;5058203;28;20727;-71
2021/09/28 08:51:19;;;;;;;8.35;1.83;;;;;;;13.74;87.99;100869.53;5054645;28;20056;-71
2021/09/28 08:53:51;;;;;;;8.80;1.73;;;;;;;13.76;86.97;100869.41;5038256;28;20042;-72
2021/09/28 08:56:18;;;;;;;7.60;1.20;;;;;;;13.85;88.99;100864.31;5038000;28;20046;-73
2021/09/28 08:58:57;;;;;;;6.47;1.70;;;;;;;13.91;88.71;100862.22;5036912;28;20041;-72
2021/09/28 09:01:25;;;;;;;10.25;1.95;;;;;;;13.92;88.34;100859.44;5037836;28;20037;-72
2021/09/28 09:03:52;;;;;;;10.55;1.52;;;;;;;14.04;89.63;100863.16;5037881;28;20038;-72
2021/09/28 09:06:31;;;;;;;55.22;5.40;;;;;;;14.11;86.82;100866.31;5037000;28;20056;-72
2021/09/28 09:09:00;;;;;;;14.43;1.88;;;;;;;14.20;87.84;100868.41;5037900;28;20049;-73
2021/09/28 09:11:34;;;;;;;9.80;1.40;;;;;;;14.26;86.47;100865.31;5037554;28;20045;-71
2021/09/28 09:14:20;;;;;;;9.45;2.20;;;;;;;14.35;85.03;100862.97;5037666;28;20038;-71
2021/09/28 09:16:49;;;;;;;11.20;1.70;;;;;;;14.39;85.18;100859.13;5037614;28;20048;-73
2021/09/28 09:19:29;;;;;;;10.00;1.85;;;;;;;14.50;85.42;100858.41;5036171;28;20422;-72
2021/09/28 09:21:58;;;;;;;10.45;1.67;;;;;;;14.60;86.43;100854.13;5036485;28;20051;-72
2021/09/28 09:24:52;;;;;;;13.13;2.33;;;;;;;14.63;85.04;100863.81;5037361;28;20167;-72
2021/09/28 09:27:31;;;;;;;8.88;1.60;;;;;;;14.77;83.52;100863.78;5037423;28;20128;-72
2021/09/28 09:30:08;;;;;;;11.48;1.67;;;;;;;14.79;83.77;100859.19;5037360;28;20057;-73
2021/09/28 09:32:55;;;;;;;10.13;1.92;;;;;;;14.86;83.02;100853.41;5037275;28;20054;-71
2021/09/28 09:35:30;;;;;;;12.30;2.83;;;;;;;14.98;82.99;100863.28;5034509;28;20060;-74
2021/09/28 09:38:11;;;;;;;13.25;2.08;;;;;;;14.98;83.34;100849.84;5057257;28;20040;-74
2021/09/28 09:40:45;;;;;;;10.15;1.50;;;;;;;15.09;81.61;100842.88;5057062;28;20045;-73
2021/09/28 09:43:14;;;;;;;14.15;2.15;;;;;;;15.13;79.73;100849.75;5055625;28;20377;-72
2021/09/28 09:45:41;;;;;;;12.82;1.73;;;;;;;15.12;78.38;100850.72;5056703;28;20333;-73
2021/09/28 09:48:25;;;;;;;10.90;2.13;;;;;;;15.18;78.31;100847.59;5056385;28;20037;-72
2021/09/28 09:51:19;;;;;;;9.40;2.28;;;;;;;15.24;81.44;100847.19;5055453;28;20037;-72
2021/09/28 09:53:59;;;;;;;11.30;1.73;;;;;;;15.26;81.69;100839.84;5054855;28;20104;-71
2021/09/28 09:56:43;;;;;;;18.75;2.20;;;;;;;15.29;77.33;100839.66;5055183;28;20048;-73
2021/09/28 09:59:11;;;;;;;14.65;2.00;;;;;;;15.41;78.46;100843.31;5071065;28;20049;-73
2021/09/28 10:01:38;;;;;;;9.75;2.25;;;;;;;15.45;78.21;100835.88;5037495;28;20076;-72
2021/09/28 10:04:11;;;;;;;16.27;2.40;;;;;;;15.53;78.54;100832.66;5055524;28;20041;-71
2021/09/28 10:06:37;;;;;;;7.90;1.75;;;;;;;15.69;79.51;100832.41;5054202;28;20041;-73
2021/09/28 10:09:10;;;;;;;12.40;1.98;;;;;;;15.69;75.36;100838.66;5055270;28;20112;-74
2021/09/28 10:11:38;;;;;;;10.02;1.75;;;;;;;15.78;76.94;100833.56;5055382;28;20041;-72
2021/09/28 10:14:06;;;;;;;11.13;2.17;;;;;;;15.87;75.69;100828.38;5055425;28;20041;-73
2021/09/28 10:16:44;;;;;;;11.32;1.95;;;;;;;15.90;76.14;100832.66;5054543;28;20430;-71
2021/09/28 10:19:27;;;;;;;12.70;1.98;;;;;;;15.94;74.71;100822.56;5054589;28;20508;-74
2021/09/28 10:21:58;;;;;;;9.98;2.47;;;;;;;16.01;75.35;100821.16;5055328;28;20048;-70
2021/09/28 10:24:32;;;;;;;11.63;1.80;;;;;;;16.11;75.51;100824.91;5070252;28;20060;-73
2021/09/28 10:26:58;;;;;;;7.53;1.30;;;;;;;16.17;73.77;100818.19;5048361;28;20045;-73
2021/09/28 10:29:37;;;;;;;14.13;1.90;;;;;;;16.22;71.35;100821.41;5044217;28;20428;-73
2021/09/28 10:32:34;;;;;;;5.40;1.75;;;;;;;16.21;71.35;100808.03;5055070;28;20037;-73
2021/09/28 10:35:01;;;;;;;16.52;1.58;;;;;;;16.27;72.07;100812.97;5049358;28;20049;-71
2021/09/28 10:38:01;;;;;;;9.75;1.85;;;;;;;16.38;71.41;100802.25;5055990;28;20048;-71
2021/09/28 10:40:36;;;;;;;6.85;1.38;;;;;;;16.47;71.08;100807.91;5056009;28;20053;-72
2021/09/28 10:43:06;;;;;;;8.85;1.80;;;;;;;16.45;70.97;100801.81;5055355;28;20060;-73
2021/09/28 10:45:35;;;;;;;8.75;1.88;;;;;;;16.53;70.85;100796.69;5054747;28;20338;-73
2021/09/28 10:48:26;;;;;;;9.80;1.52;;;;;;;16.63;69.35;100797.72;5055657;28;20052;-71
2021/09/28 10:51:13;;;;;;;12.15;2.15;;;;;;;16.75;68.04;100793.19;5054244;28;20099;-73
2021/09/28 10:53:44;;;;;;;10.02;1.73;;;;;;;16.74;69.70;100796.00;5034679;28;20057;-72
2021/09/28 10:56:14;;;;;;;6.95;1.75;;;;;;;16.74;68.87;100788.78;5035708;28;20107;-74
2021/09/28 10:58:58;;;;;;;8.70;2.22;;;;;;;16.80;68.43;100791.03;5039084;28;20113;-73
2021/09/28 11:01:27;;;;;;;7.53;1.80;;;;;;;16.87;67.72;100794.09;5035639;28;20068;-72
2021/09/28 11:03:57;;;;;;;8.32;2.05;;;;;;;16.86;68.28;100789.66;5035542;28;20061;-73
2021/09/28 11:07:09;;;;;;;6.07;1.80;;;;;;;16.91;68.31;100786.63;5035420;28;20053;-72
2021/09/28 11:09:44;;;;;;;9.07;1.98;;;;;;;16.98;67.89;100779.75;4997058;28;20077;-74
2021/09/28 11:12:11;;;;;;;10.23;2.45;;;;;;;16.95;66.27;100777.31;5013607;28;20049;-71
2021/09/28 11:14:39;;;;;;;8.80;1.92;;;;;;;16.79;67.80;100777.66;5026376;28;20061;-73
2021/09/28 11:17:15;;;;;;;7.55;1.70;;;;;;;16.95;67.63;100783.56;5034095;28;20049;-71
2021/09/28 11:19:42;;;;;;;7.57;1.58;;;;;;;17.03;65.20;100768.63;5035272;28;20069;-73
2021/09/28 11:22:16;;;;;;;7.70;1.58;;;;;;;17.00;65.71;100766.16;5035204;28;20450;-72
2021/09/28 11:24:43;;;;;;;9.43;1.73;;;;;;;17.02;64.92;100764.22;5033980;28;20051;-72
2021/09/28 11:27:10;;;;;;;11.52;1.90;;;;;;;17.12;66.37;100753.56;5042831;28;20090;-71
2021/09/28 11:29:39;;;;;;;11.25;3.28;;;;;;;17.21;66.03;100758.25;5054919;28;20053;-73